sensor_id;sensor_type;location;lat;lon;timestamp;temperature;humidity
1329;DHT22;658;48.820;9.354;2024-02-21T00:03:46;21.60;50.20
1329;DHT22;658;48.820;9.354;2024-02-21T00:07:49;21.60;49.90
1329;DHT22;658;48.820;9.354;2024-02-21T00:11:49;21.60;50.00
1329;DHT22;658;48.820;9.354;2024-02-21T00:15:50;21.60;49.90
1329;DHT22;658;48.820;9.354;2024-02-21T00:19:53;21.60;50.10
1329;DHT22;658;48.820;9.354;2024-02-21T00:23:53;21.60;50.00
1329;DHT22;658;48.820;9.354;2024-02-21T00:27:54;21.60;50.00
1329;DHT22;658;48.820;9.354;2024-02-21T00:31:55;21.60;50.10
1329;DHT22;658;48.820;9.354;2024-02-21T00:35:55;21.60;50.20
1329;DHT22;658;48.820;9.354;2024-02-21T00:39:56;21.60;50.10
1329;DHT22;658;48.820;9.354;2024-02-21T00:43:56;21.60;50.00
1329;DHT22;658;48.820;9.354;2024-02-21T00:47:57;21.60;50.00
1329;DHT22;658;48.820;9.354;2024-02-21T00:51:57;21.60;49.80
1329;DHT22;658;48.820;9.354;2024-02-21T00:55:58;21.60;49.90
1329;DHT22;658;48.820;9.354;2024-02-21T00:59:59;21.60;49.80
1329;DHT22;658;48.820;9.354;2024-02-21T01:03:59;21.60;49.70
1329;DHT22;658;48.820;9.354;2024-02-21T01:08:04;21.60;49.60
1329;DHT22;658;48.820;9.354;2024-02-21T01:12:05;21.60;49.60
1329;DHT22;658;48.820;9.354;2024-02-21T01:16:08;21.60;49.60
1329;DHT22;658;48.820;9.354;2024-02-21T01:20:09;21.60;49.50
1329;DHT22;658;48.820;9.354;2024-02-21T01:24:10;21.60;49.40
1329;DHT22;658;48.820;9.354;2024-02-21T01:28:10;21.60;49.30
1329;DHT22;658;48.820;9.354;2024-02-21T01:32:11;21.70;49.40
1329;DHT22;658;48.820;9.354;2024-02-21T01:36:14;21.70;49.20
1329;DHT22;658;48.820;9.354;2024-02-21T01:40:17;21.60;49.10
1329;DHT22;658;48.820;9.354;2024-02-21T01:44:17;21.70;49.10
1329;DHT22;658;48.820;9.354;2024-02-21T01:48:19;21.70;49.10
1329;DHT22;658;48.820;9.354;2024-02-21T01:52:19;21.60;49.00
1329;DHT22;658;48.820;9.354;2024-02-21T01:56:20;21.60;48.90
1329;DHT22;658;48.820;9.354;2024-02-21T02:00:24;21.70;48.80
1329;DHT22;658;48.820;9.354;2024-02-21T02:04:25;21.70;48.70
1329;DHT22;658;48.820;9.354;2024-02-21T02:08:27;21.70;48.60
1329;DHT22;658;48.820;9.354;2024-02-21T02:12:27;21.70;48.50
1329;DHT22;658;48.820;9.354;2024-02-21T02:16:28;21.70;48.30
1329;DHT22;658;48.820;9.354;2024-02-21T02:20:31;21.70;48.30
1329;DHT22;658;48.820;9.354;2024-02-21T02:24:31;21.70;48.20
1329;DHT22;658;48.820;9.354;2024-02-21T02:28:32;21.70;48.20
1329;DHT22;658;48.820;9.354;2024-02-21T02:32:33;21.70;48.10
1329;DHT22;658;48.820;9.354;2024-02-21T02:36:33;21.60;48.00
1329;DHT22;658;48.820;9.354;2024-02-21T02:40:34;21.70;47.90
1329;DHT22;658;48.820;9.354;2024-02-21T02:44:35;21.60;47.70
1329;DHT22;658;48.820;9.354;2024-02-21T02:48:38;21.70;47.70
1329;DHT22;658;48.820;9.354;2024-02-21T02:52:39;21.70;47.70
1329;DHT22;658;48.820;9.354;2024-02-21T02:56:39;21.70;47.50
1329;DHT22;658;48.820;9.354;2024-02-21T03:00:40;21.70;47.60
1329;DHT22;658;48.820;9.354;2024-02-21T03:04:41;21.70;47.40
1329;DHT22;658;48.820;9.354;2024-02-21T03:08:41;21.70;47.30
1329;DHT22;658;48.820;9.354;2024-02-21T03:12:43;21.70;47.20
1329;DHT22;658;48.820;9.354;2024-02-21T03:16:45;21.70;47.00
1329;DHT22;658;48.820;9.354;2024-02-21T03:20:46;21.80;47.10
1329;DHT22;658;48.820;9.354;2024-02-21T03:24:49;21.80;47.10
1329;DHT22;658;48.820;9.354;2024-02-21T03:28:50;21.80;46.90
1329;DHT22;658;48.820;9.354;2024-02-21T03:32:52;21.80;46.70
1329;DHT22;658;48.820;9.354;2024-02-21T03:36:55;21.80;46.60
1329;DHT22;658;48.820;9.354;2024-02-21T03:40:56;21.80;46.60
1329;DHT22;658;48.820;9.354;2024-02-21T03:44:57;21.80;46.40
1329;DHT22;658;48.820;9.354;2024-02-21T03:48:58;21.80;46.40
1329;DHT22;658;48.820;9.354;2024-02-21T03:52:59;21.80;46.40
1329;DHT22;658;48.820;9.354;2024-02-21T03:57:00;21.80;46.20
1329;DHT22;658;48.820;9.354;2024-02-21T04:01:01;21.80;46.20
1329;DHT22;658;48.820;9.354;2024-02-21T04:05:02;21.80;46.00
1329;DHT22;658;48.820;9.354;2024-02-21T04:09:02;21.80;46.10
1329;DHT22;658;48.820;9.354;2024-02-21T04:13:06;21.80;46.00
1329;DHT22;658;48.820;9.354;2024-02-21T04:17:06;21.80;45.80
1329;DHT22;658;48.820;9.354;2024-02-21T04:21:09;21.80;45.80
1329;DHT22;658;48.820;9.354;2024-02-21T04:25:10;21.80;45.70
1329;DHT22;658;48.820;9.354;2024-02-21T04:29:13;21.80;45.60
1329;DHT22;658;48.820;9.354;2024-02-21T04:33:14;21.80;45.50
1329;DHT22;658;48.820;9.354;2024-02-21T04:37:14;21.80;45.60
1329;DHT22;658;48.820;9.354;2024-02-21T04:41:17;21.80;45.50
1329;DHT22;658;48.820;9.354;2024-02-21T04:45:18;21.80;45.40
1329;DHT22;658;48.820;9.354;2024-02-21T04:49:21;21.80;45.40
1329;DHT22;658;48.820;9.354;2024-02-21T04:53:21;21.80;45.30
1329;DHT22;658;48.820;9.354;2024-02-21T04:57:24;21.80;45.20
1329;DHT22;658;48.820;9.354;2024-02-21T05:01:25;21.80;45.20
1329;DHT22;658;48.820;9.354;2024-02-21T05:05:26;21.80;45.10
1329;DHT22;658;48.820;9.354;2024-02-21T05:09:26;21.80;45.00
1329;DHT22;658;48.820;9.354;2024-02-21T05:13:27;21.80;45.00
1329;DHT22;658;48.820;9.354;2024-02-21T05:17:27;21.80;45.00
1329;DHT22;658;48.820;9.354;2024-02-21T05:21:28;21.80;45.00
1329;DHT22;658;48.820;9.354;2024-02-21T05:25:28;21.80;44.90
1329;DHT22;658;48.820;9.354;2024-02-21T05:29:29;21.80;44.90
1329;DHT22;658;48.820;9.354;2024-02-21T05:33:30;21.80;44.80
1329;DHT22;658;48.820;9.354;2024-02-21T05:37:30;21.80;44.70
1329;DHT22;658;48.820;9.354;2024-02-21T05:41:31;21.80;44.70
1329;DHT22;658;48.820;9.354;2024-02-21T05:45:31;21.80;44.60
1329;DHT22;658;48.820;9.354;2024-02-21T05:49:32;21.80;44.60
1329;DHT22;658;48.820;9.354;2024-02-21T05:53:33;21.80;44.60
1329;DHT22;658;48.820;9.354;2024-02-21T05:57:33;21.80;44.50
1329;DHT22;658;48.820;9.354;2024-02-21T06:01:34;21.80;44.40
1329;DHT22;658;48.820;9.354;2024-02-21T06:05:40;21.80;44.40
1329;DHT22;658;48.820;9.354;2024-02-21T06:09:41;21.80;45.10
1329;DHT22;658;48.820;9.354;2024-02-21T06:13:41;21.90;44.90
1329;DHT22;658;48.820;9.354;2024-02-21T06:17:42;21.90;44.70
1329;DHT22;658;48.820;9.354;2024-02-21T06:21:42;21.90;44.80
1329;DHT22;658;48.820;9.354;2024-02-21T06:25:43;21.90;44.40
1329;DHT22;658;48.820;9.354;2024-02-21T06:29:44;21.90;44.60
1329;DHT22;658;48.820;9.354;2024-02-21T06:33:47;21.90;44.70
1329;DHT22;658;48.820;9.354;2024-02-21T06:37:47;22.00;44.80
1329;DHT22;658;48.820;9.354;2024-02-21T06:41:51;22.10;44.80
1329;DHT22;658;48.820;9.354;2024-02-21T06:45:54;22.10;44.70
1329;DHT22;658;48.820;9.354;2024-02-21T06:49:57;22.10;44.60
1329;DHT22;658;48.820;9.354;2024-02-21T06:53:57;22.10;44.30
1329;DHT22;658;48.820;9.354;2024-02-21T06:57:58;22.00;44.30
1329;DHT22;658;48.820;9.354;2024-02-21T07:01:58;22.00;44.20
1329;DHT22;658;48.820;9.354;2024-02-21T07:06:01;22.00;44.30
1329;DHT22;658;48.820;9.354;2024-02-21T07:10:01;22.10;44.20
1329;DHT22;658;48.820;9.354;2024-02-21T07:14:02;22.00;44.70
1329;DHT22;658;48.820;9.354;2024-02-21T07:18:03;22.00;44.10
1329;DHT22;658;48.820;9.354;2024-02-21T07:22:03;22.00;43.90
1329;DHT22;658;48.820;9.354;2024-02-21T07:26:04;22.10;44.00
1329;DHT22;658;48.820;9.354;2024-02-21T07:30:05;22.20;43.90
1329;DHT22;658;48.820;9.354;2024-02-21T07:34:08;22.30;43.90
1329;DHT22;658;48.820;9.354;2024-02-21T07:38:09;22.40;43.80
1329;DHT22;658;48.820;9.354;2024-02-21T07:42:12;22.40;43.60
1329;DHT22;658;48.820;9.354;2024-02-21T07:46:13;22.50;43.60
1329;DHT22;658;48.820;9.354;2024-02-21T07:50:14;22.60;43.60
1329;DHT22;658;48.820;9.354;2024-02-21T07:54:14;22.60;44.20
1329;DHT22;658;48.820;9.354;2024-02-21T07:58:15;22.70;44.10
1329;DHT22;658;48.820;9.354;2024-02-21T08:02:15;22.70;43.90
1329;DHT22;658;48.820;9.354;2024-02-21T08:06:18;22.80;43.70
1329;DHT22;658;48.820;9.354;2024-02-21T08:10:22;22.90;43.80
1329;DHT22;658;48.820;9.354;2024-02-21T08:14:25;23.00;43.50
1329;DHT22;658;48.820;9.354;2024-02-21T08:18:28;23.00;43.20
1329;DHT22;658;48.820;9.354;2024-02-21T08:22:29;23.00;43.10
1329;DHT22;658;48.820;9.354;2024-02-21T08:26:29;23.00;43.00
1329;DHT22;658;48.820;9.354;2024-02-21T08:30:31;23.00;42.90
1329;DHT22;658;48.820;9.354;2024-02-21T08:34:31;23.10;42.80
1329;DHT22;658;48.820;9.354;2024-02-21T08:38:34;23.10;42.80
1329;DHT22;658;48.820;9.354;2024-02-21T08:42:35;23.10;42.80
1329;DHT22;658;48.820;9.354;2024-02-21T08:46:36;23.20;42.70
1329;DHT22;658;48.820;9.354;2024-02-21T08:50:40;23.20;42.60
1329;DHT22;658;48.820;9.354;2024-02-21T08:54:41;23.30;42.60
1329;DHT22;658;48.820;9.354;2024-02-21T08:58:42;23.30;42.70
1329;DHT22;658;48.820;9.354;2024-02-21T09:02:43;23.30;42.40
1329;DHT22;658;48.820;9.354;2024-02-21T09:06:43;23.40;42.50
1329;DHT22;658;48.820;9.354;2024-02-21T09:10:45;23.40;42.40
1329;DHT22;658;48.820;9.354;2024-02-21T09:14:48;23.40;42.30
1329;DHT22;658;48.820;9.354;2024-02-21T09:18:51;23.50;42.80
1329;DHT22;658;48.820;9.354;2024-02-21T09:22:52;23.50;42.10
1329;DHT22;658;48.820;9.354;2024-02-21T09:26:55;23.50;42.00
1329;DHT22;658;48.820;9.354;2024-02-21T09:30:56;23.50;42.00
1329;DHT22;658;48.820;9.354;2024-02-21T09:34:56;23.50;41.90
1329;DHT22;658;48.820;9.354;2024-02-21T09:38:57;23.60;41.90
1329;DHT22;658;48.820;9.354;2024-02-21T09:43:04;23.60;41.70
1329;DHT22;658;48.820;9.354;2024-02-21T09:47:10;23.60;41.60
1329;DHT22;658;48.820;9.354;2024-02-21T09:51:14;23.60;41.80
1329;DHT22;658;48.820;9.354;2024-02-21T09:55:16;23.60;41.80
1329;DHT22;658;48.820;9.354;2024-02-21T09:59:18;23.70;41.80
1329;DHT22;658;48.820;9.354;2024-02-21T10:03:19;23.80;41.70
1329;DHT22;658;48.820;9.354;2024-02-21T10:07:20;23.80;41.70
1329;DHT22;658;48.820;9.354;2024-02-21T10:11:24;23.80;41.60
1329;DHT22;658;48.820;9.354;2024-02-21T10:15:25;23.90;41.50
1329;DHT22;658;48.820;9.354;2024-02-21T10:19:25;23.90;41.50
1329;DHT22;658;48.820;9.354;2024-02-21T10:23:28;24.00;41.40
1329;DHT22;658;48.820;9.354;2024-02-21T10:27:29;24.10;41.50
1329;DHT22;658;48.820;9.354;2024-02-21T10:31:32;24.10;41.40
1329;DHT22;658;48.820;9.354;2024-02-21T10:35:35;24.10;41.40
1329;DHT22;658;48.820;9.354;2024-02-21T10:39:40;24.20;41.30
1329;DHT22;658;48.820;9.354;2024-02-21T10:43:40;24.30;41.20
1329;DHT22;658;48.820;9.354;2024-02-21T10:47:43;24.40;41.10
1329;DHT22;658;48.820;9.354;2024-02-21T10:51:49;24.40;41.10
1329;DHT22;658;48.820;9.354;2024-02-21T10:55:58;24.40;40.90
1329;DHT22;658;48.820;9.354;2024-02-21T10:59:59;24.40;40.90
1329;DHT22;658;48.820;9.354;2024-02-21T11:04:06;24.50;40.90
1329;DHT22;658;48.820;9.354;2024-02-21T11:08:07;24.50;41.00
1329;DHT22;658;48.820;9.354;2024-02-21T11:12:10;24.50;40.80
1329;DHT22;658;48.820;9.354;2024-02-21T11:16:23;24.50;40.60
1329;DHT22;658;48.820;9.354;2024-02-21T11:20:37;24.60;40.60
1329;DHT22;658;48.820;9.354;2024-02-21T11:24:38;24.60;40.50
1329;DHT22;658;48.820;9.354;2024-02-21T11:28:38;24.60;40.60
1329;DHT22;658;48.820;9.354;2024-02-21T11:32:42;24.50;40.30
1329;DHT22;658;48.820;9.354;2024-02-21T11:36:50;24.50;40.30
1329;DHT22;658;48.820;9.354;2024-02-21T11:40:51;24.50;40.30
1329;DHT22;658;48.820;9.354;2024-02-21T11:44:52;24.50;40.40
1329;DHT22;658;48.820;9.354;2024-02-21T11:48:53;24.50;40.20
1329;DHT22;658;48.820;9.354;2024-02-21T11:52:55;24.50;40.20
1329;DHT22;658;48.820;9.354;2024-02-21T11:56:56;24.50;40.10
1329;DHT22;658;48.820;9.354;2024-02-21T12:00:56;24.50;40.00
1329;DHT22;658;48.820;9.354;2024-02-21T12:04:57;24.50;40.10
1329;DHT22;658;48.820;9.354;2024-02-21T12:08:58;24.50;39.90
1329;DHT22;658;48.820;9.354;2024-02-21T12:13:09;24.60;40.10
1329;DHT22;658;48.820;9.354;2024-02-21T12:17:12;24.60;40.00
1329;DHT22;658;48.820;9.354;2024-02-21T12:21:12;24.60;40.10
1329;DHT22;658;48.820;9.354;2024-02-21T12:25:22;24.60;40.20
1329;DHT22;658;48.820;9.354;2024-02-21T12:29:24;24.60;40.20
1329;DHT22;658;48.820;9.354;2024-02-21T12:33:29;24.60;40.20
1329;DHT22;658;48.820;9.354;2024-02-21T12:37:29;24.60;40.20
1329;DHT22;658;48.820;9.354;2024-02-21T12:41:30;24.70;40.30
1329;DHT22;658;48.820;9.354;2024-02-21T12:45:32;24.70;40.00
1329;DHT22;658;48.820;9.354;2024-02-21T12:49:34;24.70;40.10
1329;DHT22;658;48.820;9.354;2024-02-21T12:53:35;24.80;40.00
1329;DHT22;658;48.820;9.354;2024-02-21T12:57:35;24.80;40.10
1329;DHT22;658;48.820;9.354;2024-02-21T13:01:37;24.80;40.00
1329;DHT22;658;48.820;9.354;2024-02-21T13:05:38;24.80;40.20
1329;DHT22;658;48.820;9.354;2024-02-21T13:09:39;24.80;40.10
1329;DHT22;658;48.820;9.354;2024-02-21T13:13:40;24.80;39.90
1329;DHT22;658;48.820;9.354;2024-02-21T13:17:41;24.80;39.90
1329;DHT22;658;48.820;9.354;2024-02-21T13:21:42;24.80;39.80
1329;DHT22;658;48.820;9.354;2024-02-21T13:25:43;24.90;39.80
1329;DHT22;658;48.820;9.354;2024-02-21T13:29:45;24.90;39.90
1329;DHT22;658;48.820;9.354;2024-02-21T13:33:46;24.90;39.70
1329;DHT22;658;48.820;9.354;2024-02-21T13:37:47;24.80;39.70
1329;DHT22;658;48.820;9.354;2024-02-21T13:41:48;24.80;39.50
1329;DHT22;658;48.820;9.354;2024-02-21T13:45:59;24.80;39.60
1329;DHT22;658;48.820;9.354;2024-02-21T13:50:00;24.80;39.50
1329;DHT22;658;48.820;9.354;2024-02-21T13:54:00;24.70;39.50
1329;DHT22;658;48.820;9.354;2024-02-21T13:58:01;24.70;39.60
1329;DHT22;658;48.820;9.354;2024-02-21T14:02:01;24.70;39.60
1329;DHT22;658;48.820;9.354;2024-02-21T14:06:04;24.70;39.40
1329;DHT22;658;48.820;9.354;2024-02-21T14:10:06;24.70;39.50
1329;DHT22;658;48.820;9.354;2024-02-21T14:14:07;24.70;39.50
1329;DHT22;658;48.820;9.354;2024-02-21T14:18:10;24.70;39.70
1329;DHT22;658;48.820;9.354;2024-02-21T14:22:10;24.70;39.60
1329;DHT22;658;48.820;9.354;2024-02-21T14:26:12;24.70;39.60
1329;DHT22;658;48.820;9.354;2024-02-21T14:30:12;24.60;39.90
1329;DHT22;658;48.820;9.354;2024-02-21T14:34:15;24.60;40.10
1329;DHT22;658;48.820;9.354;2024-02-21T14:38:17;24.50;40.00
1329;DHT22;658;48.820;9.354;2024-02-21T14:42:18;24.60;40.40
1329;DHT22;658;48.820;9.354;2024-02-21T14:46:19;24.50;40.20
1329;DHT22;658;48.820;9.354;2024-02-21T14:50:19;24.50;40.10
1329;DHT22;658;48.820;9.354;2024-02-21T14:54:20;24.50;40.20
1329;DHT22;658;48.820;9.354;2024-02-21T14:58:21;24.50;40.40
1329;DHT22;658;48.820;9.354;2024-02-21T15:02:22;24.50;40.60
1329;DHT22;658;48.820;9.354;2024-02-21T15:06:23;24.50;40.40
1329;DHT22;658;48.820;9.354;2024-02-21T15:10:24;24.50;40.30
1329;DHT22;658;48.820;9.354;2024-02-21T15:14:24;24.50;40.50
1329;DHT22;658;48.820;9.354;2024-02-21T15:18:25;24.50;40.20
1329;DHT22;658;48.820;9.354;2024-02-21T15:22:25;24.50;40.30
1329;DHT22;658;48.820;9.354;2024-02-21T15:26:26;24.40;40.10
1329;DHT22;658;48.820;9.354;2024-02-21T15:30:26;24.50;40.30
1329;DHT22;658;48.820;9.354;2024-02-21T15:34:32;24.40;40.30
1329;DHT22;658;48.820;9.354;2024-02-21T15:38:34;24.40;40.30
1329;DHT22;658;48.820;9.354;2024-02-21T15:42:37;24.30;40.20
1329;DHT22;658;48.820;9.354;2024-02-21T15:46:40;24.30;40.10
1329;DHT22;658;48.820;9.354;2024-02-21T15:50:41;24.30;40.20
1329;DHT22;658;48.820;9.354;2024-02-21T15:54:41;24.30;40.30
1329;DHT22;658;48.820;9.354;2024-02-21T15:58:42;24.30;40.30
1329;DHT22;658;48.820;9.354;2024-02-21T16:02:43;24.30;40.30
1329;DHT22;658;48.820;9.354;2024-02-21T16:06:44;24.30;40.50
1329;DHT22;658;48.820;9.354;2024-02-21T16:10:46;24.30;40.40
1329;DHT22;658;48.820;9.354;2024-02-21T16:14:47;24.30;40.30
1329;DHT22;658;48.820;9.354;2024-02-21T16:18:48;24.20;40.30
1329;DHT22;658;48.820;9.354;2024-02-21T16:22:48;24.30;40.40
1329;DHT22;658;48.820;9.354;2024-02-21T16:26:49;24.20;40.30
1329;DHT22;658;48.820;9.354;2024-02-21T16:30:52;24.20;40.50
1329;DHT22;658;48.820;9.354;2024-02-21T16:34:53;24.10;40.20
1329;DHT22;658;48.820;9.354;2024-02-21T16:38:54;24.10;40.40
1329;DHT22;658;48.820;9.354;2024-02-21T16:42:55;24.10;40.40
1329;DHT22;658;48.820;9.354;2024-02-21T16:46:55;24.10;40.50
1329;DHT22;658;48.820;9.354;2024-02-21T16:50:56;24.10;40.40
1329;DHT22;658;48.820;9.354;2024-02-21T16:54:57;24.10;40.50
1329;DHT22;658;48.820;9.354;2024-02-21T16:58:57;24.10;40.40
1329;DHT22;658;48.820;9.354;2024-02-21T17:02:58;23.90;40.40
1329;DHT22;658;48.820;9.354;2024-02-21T17:06:58;23.80;38.30
1329;DHT22;658;48.820;9.354;2024-02-21T17:10:59;23.70;38.10
1329;DHT22;658;48.820;9.354;2024-02-21T17:15:05;23.60;37.90
1329;DHT22;658;48.820;9.354;2024-02-21T17:19:06;23.50;38.00
1329;DHT22;658;48.820;9.354;2024-02-21T17:23:06;23.40;38.10
1329;DHT22;658;48.820;9.354;2024-02-21T17:27:07;23.30;38.00
1329;DHT22;658;48.820;9.354;2024-02-21T17:31:08;23.30;38.70
1329;DHT22;658;48.820;9.354;2024-02-21T17:35:10;23.40;38.90
1329;DHT22;658;48.820;9.354;2024-02-21T17:39:13;23.50;39.30
1329;DHT22;658;48.820;9.354;2024-02-21T17:43:13;23.50;39.20
1329;DHT22;658;48.820;9.354;2024-02-21T17:47:16;23.50;39.50
1329;DHT22;658;48.820;9.354;2024-02-21T17:51:17;23.50;39.50
1329;DHT22;658;48.820;9.354;2024-02-21T17:55:17;23.50;39.60
1329;DHT22;658;48.820;9.354;2024-02-21T17:59:18;23.60;39.60
1329;DHT22;658;48.820;9.354;2024-02-21T18:03:19;23.60;39.60
1329;DHT22;658;48.820;9.354;2024-02-21T18:07:20;23.50;39.60
1329;DHT22;658;48.820;9.354;2024-02-21T18:11:21;23.50;39.60
1329;DHT22;658;48.820;9.354;2024-02-21T18:15:21;23.50;39.70
1329;DHT22;658;48.820;9.354;2024-02-21T18:19:22;23.40;39.70
1329;DHT22;658;48.820;9.354;2024-02-21T18:23:22;23.40;39.80
1329;DHT22;658;48.820;9.354;2024-02-21T18:27:28;23.40;39.80
1329;DHT22;658;48.820;9.354;2024-02-21T18:31:30;23.40;39.80
1329;DHT22;658;48.820;9.354;2024-02-21T18:35:30;23.30;39.80
1329;DHT22;658;48.820;9.354;2024-02-21T18:39:34;23.30;39.90
1329;DHT22;658;48.820;9.354;2024-02-21T18:43:34;23.30;39.90
1329;DHT22;658;48.820;9.354;2024-02-21T18:47:35;23.30;40.10
1329;DHT22;658;48.820;9.354;2024-02-21T18:51:36;23.30;40.10
1329;DHT22;658;48.820;9.354;2024-02-21T18:55:40;23.30;40.10
1329;DHT22;658;48.820;9.354;2024-02-21T18:59:40;23.40;40.30
1329;DHT22;658;48.820;9.354;2024-02-21T19:03:41;23.30;40.30
1329;DHT22;658;48.820;9.354;2024-02-21T19:07:43;23.30;40.40
1329;DHT22;658;48.820;9.354;2024-02-21T19:11:44;23.30;40.70
1329;DHT22;658;48.820;9.354;2024-02-21T19:15:45;23.30;40.80
1329;DHT22;658;48.820;9.354;2024-02-21T19:19:45;23.30;40.90
1329;DHT22;658;48.820;9.354;2024-02-21T19:23:47;23.20;41.10
1329;DHT22;658;48.820;9.354;2024-02-21T19:27:48;23.30;41.00
1329;DHT22;658;48.820;9.354;2024-02-21T19:31:49;23.30;41.00
1329;DHT22;658;48.820;9.354;2024-02-21T19:35:49;23.30;41.20
1329;DHT22;658;48.820;9.354;2024-02-21T19:39:50;23.30;41.20
1329;DHT22;658;48.820;9.354;2024-02-21T19:43:50;23.40;41.20
1329;DHT22;658;48.820;9.354;2024-02-21T19:47:52;23.40;41.10
1329;DHT22;658;48.820;9.354;2024-02-21T19:51:52;23.40;41.00
1329;DHT22;658;48.820;9.354;2024-02-21T19:55:55;23.40;40.90
1329;DHT22;658;48.820;9.354;2024-02-21T19:59:56;23.40;41.20
1329;DHT22;658;48.820;9.354;2024-02-21T20:03:58;23.40;41.00
1329;DHT22;658;48.820;9.354;2024-02-21T20:07:59;23.40;41.00
1329;DHT22;658;48.820;9.354;2024-02-21T20:12:00;23.40;40.90
1329;DHT22;658;48.820;9.354;2024-02-21T20:16:04;23.40;41.20
1329;DHT22;658;48.820;9.354;2024-02-21T20:20:05;23.30;40.90
1329;DHT22;658;48.820;9.354;2024-02-21T20:24:06;23.40;40.90
1329;DHT22;658;48.820;9.354;2024-02-21T20:28:07;23.40;40.80
1329;DHT22;658;48.820;9.354;2024-02-21T20:32:08;23.40;40.70
1329;DHT22;658;48.820;9.354;2024-02-21T20:36:09;23.40;40.70
1329;DHT22;658;48.820;9.354;2024-02-21T20:40:13;23.40;40.60
1329;DHT22;658;48.820;9.354;2024-02-21T20:44:14;23.40;40.60
1329;DHT22;658;48.820;9.354;2024-02-21T20:48:15;23.40;40.70
1329;DHT22;658;48.820;9.354;2024-02-21T20:52:15;23.40;40.70
1329;DHT22;658;48.820;9.354;2024-02-21T20:56:16;23.40;40.70
1329;DHT22;658;48.820;9.354;2024-02-21T21:00:17;23.40;40.60
1329;DHT22;658;48.820;9.354;2024-02-21T21:04:18;23.40;40.60
1329;DHT22;658;48.820;9.354;2024-02-21T21:08:19;23.40;40.50
1329;DHT22;658;48.820;9.354;2024-02-21T21:12:20;23.40;40.50
1329;DHT22;658;48.820;9.354;2024-02-21T21:16:21;23.50;41.10
1329;DHT22;658;48.820;9.354;2024-02-21T21:20:24;23.40;40.60
1329;DHT22;658;48.820;9.354;2024-02-21T21:24:30;23.40;40.80
1329;DHT22;658;48.820;9.354;2024-02-21T21:28:33;23.40;40.80
1329;DHT22;658;48.820;9.354;2024-02-21T21:32:34;23.40;41.20
1329;DHT22;658;48.820;9.354;2024-02-21T21:36:35;23.30;41.40
1329;DHT22;658;48.820;9.354;2024-02-21T21:40:38;23.30;41.10
1329;DHT22;658;48.820;9.354;2024-02-21T21:44:39;23.30;40.90
1329;DHT22;658;48.820;9.354;2024-02-21T21:48:43;23.30;40.70
1329;DHT22;658;48.820;9.354;2024-02-21T21:52:44;23.30;40.90
1329;DHT22;658;48.820;9.354;2024-02-21T21:56:45;23.30;40.70
1329;DHT22;658;48.820;9.354;2024-02-21T22:00:46;23.20;40.60
1329;DHT22;658;48.820;9.354;2024-02-21T22:04:49;23.20;40.50
1329;DHT22;658;48.820;9.354;2024-02-21T22:08:49;23.20;40.50
1329;DHT22;658;48.820;9.354;2024-02-21T22:12:52;23.20;40.30
1329;DHT22;658;48.820;9.354;2024-02-21T22:16:53;23.20;40.30
1329;DHT22;658;48.820;9.354;2024-02-21T22:20:56;23.10;40.20
1329;DHT22;658;48.820;9.354;2024-02-21T22:24:56;23.10;40.20
1329;DHT22;658;48.820;9.354;2024-02-21T22:28:57;23.10;40.20
1329;DHT22;658;48.820;9.354;2024-02-21T22:32:58;23.00;40.00
1329;DHT22;658;48.820;9.354;2024-02-21T22:36:59;23.00;40.10
1329;DHT22;658;48.820;9.354;2024-02-21T22:40:59;23.00;40.00
1329;DHT22;658;48.820;9.354;2024-02-21T22:45:00;22.90;40.00
1329;DHT22;658;48.820;9.354;2024-02-21T22:49:00;23.00;40.10
1329;DHT22;658;48.820;9.354;2024-02-21T22:53:01;22.90;40.00
1329;DHT22;658;48.820;9.354;2024-02-21T22:57:01;22.90;39.90
1329;DHT22;658;48.820;9.354;2024-02-21T23:01:03;22.90;39.90
1329;DHT22;658;48.820;9.354;2024-02-21T23:05:04;22.90;39.80
1329;DHT22;658;48.820;9.354;2024-02-21T23:09:05;22.80;39.90
1329;DHT22;658;48.820;9.354;2024-02-21T23:13:05;22.80;39.90
1329;DHT22;658;48.820;9.354;2024-02-21T23:17:10;22.80;39.90
1329;DHT22;658;48.820;9.354;2024-02-21T23:21:11;22.80;39.90
1329;DHT22;658;48.820;9.354;2024-02-21T23:25:12;22.80;40.40
1329;DHT22;658;48.820;9.354;2024-02-21T23:29:13;22.70;39.80
1329;DHT22;658;48.820;9.354;2024-02-21T23:33:13;22.70;39.60
1329;DHT22;658;48.820;9.354;2024-02-21T23:37:14;22.70;39.60
1329;DHT22;658;48.820;9.354;2024-02-21T23:41:15;22.70;39.70
1329;DHT22;658;48.820;9.354;2024-02-21T23:45:16;22.70;39.70
1329;DHT22;658;48.820;9.354;2024-02-21T23:49:17;22.70;39.50
1329;DHT22;658;48.820;9.354;2024-02-21T23:53:20;22.60;39.50
1329;DHT22;658;48.820;9.354;2024-02-21T23:57:21;22.60;39.60
